Time;durP1;ratioP1;P1;durP2;ratioP2;P2;SDS_P1;SDS_P2;PMS_P1;PMS_P2;Temp;Humidity;BMP_temperature;BMP_pressure;BME280_temperature;BME280_humidity;BME280_pressure;Samples;Min_cycle;Max_cycle;Signal;HPM_P1;HPM_P2
2023/07/17 00:02:53;;;;;;;11.35;4.57;;;15.00;99.90;;;;;;7372135;32;20264;-56
2023/07/17 00:06:55;;;;;;;8.48;4.32;;;15.10;99.90;;;;;;7385080;32;20431;-55
2023/07/17 00:10:58;;;;;;;7.90;4.22;;;15.20;99.90;;;;;;7384520;32;20154;-55
2023/07/17 00:15:00;;;;;;;8.43;4.50;;;15.30;99.90;;;;;;7366481;32;20262;-55
2023/07/17 00:19:01;;;;;;;11.45;4.78;;;15.40;99.90;;;;;;7373732;32;20117;-55
2023/07/17 00:23:03;;;;;;;8.02;4.00;;;15.70;99.90;;;;;;7375039;32;20485;-55
2023/07/17 00:27:09;;;;;;;6.53;3.70;;;16.00;99.90;;;;;;7380010;32;20696;-55
2023/07/17 00:31:11;;;;;;;7.28;3.12;;;16.40;99.90;;;;;;7378179;32;20465;-55
2023/07/17 00:35:13;;;;;;;8.10;3.58;;;16.60;99.90;;;;;;7370183;32;20150;-55
2023/07/17 00:39:15;;;;;;;11.45;3.75;;;16.60;99.90;;;;;;7384622;32;20233;-55
2023/07/17 00:43:17;;;;;;;6.80;3.78;;;16.80;99.90;;;;;;7377253;32;20469;-55
2023/07/17 00:47:19;;;;;;;7.05;3.62;;;16.70;99.90;;;;;;7369709;32;20439;-55
2023/07/17 00:51:21;;;;;;;9.43;3.85;;;16.50;99.90;;;;;;7375587;32;20131;-55
2023/07/17 00:55:23;;;;;;;7.90;3.92;;;16.40;99.90;;;;;;7378381;32;20210;-55
2023/07/17 00:59:26;;;;;;;6.72;3.60;;;16.20;99.90;;;;;;7382773;32;20228;-55
2023/07/17 01:03:29;;;;;;;7.18;3.85;;;16.10;99.90;;;;;;7381146;32;20554;-55
2023/07/17 01:07:31;;;;;;;7.70;3.83;;;16.10;99.90;;;;;;7368390;32;20784;-55
2023/07/17 01:11:34;;;;;;;6.75;3.95;;;16.00;99.90;;;;;;7378741;32;20107;-55
2023/07/17 01:15:36;;;;;;;8.15;3.87;;;16.00;99.90;;;;;;7374298;32;20103;-55
2023/07/17 01:19:37;;;;;;;10.10;4.62;;;16.00;99.90;;;;;;7369059;32;20119;-55
2023/07/17 01:23:40;;;;;;;11.10;4.15;;;15.90;99.90;;;;;;7370959;32;20635;-56
2023/07/17 01:27:42;;;;;;;9.40;3.80;;;16.00;99.90;;;;;;7380559;32;20111;-55
2023/07/17 01:31:44;;;;;;;7.80;4.00;;;16.00;99.90;;;;;;7372039;32;20488;-55
2023/07/17 01:35:46;;;;;;;8.38;3.33;;;16.10;99.90;;;;;;7382736;32;20544;-55
2023/07/17 01:39:47;;;;;;;5.15;2.58;;;16.10;99.90;;;;;;7373429;32;20256;-55
2023/07/17 01:43:50;;;;;;;6.10;2.92;;;16.00;99.90;;;;;;7370494;32;20103;-55
2023/07/17 01:47:52;;;;;;;5.68;2.53;;;16.10;99.90;;;;;;7374415;32;20464;-55
2023/07/17 01:51:54;;;;;;;6.12;2.67;;;16.10;99.90;;;;;;7370992;32;20125;-54
2023/07/17 01:55:56;;;;;;;6.18;2.22;;;16.00;99.90;;;;;;7377095;32;20111;-55
2023/07/17 01:59:57;;;;;;;4.10;2.10;;;16.10;99.90;;;;;;7381757;32;20129;-55
2023/07/17 02:04:00;;;;;;;3.90;2.37;;;16.00;99.90;;;;;;7373366;32;20210;-55
2023/07/17 02:08:02;;;;;;;5.65;2.40;;;16.00;99.90;;;;;;7375498;32;20547;-55
2023/07/17 02:12:05;;;;;;;4.03;2.03;;;16.00;99.90;;;;;;7376161;32;20134;-55
2023/07/17 02:16:07;;;;;;;4.28;2.28;;;16.00;99.90;;;;;;7380772;32;20131;-55
2023/07/17 02:20:10;;;;;;;4.95;2.10;;;15.90;99.90;;;;;;7375975;32;20100;-55
2023/07/17 02:24:12;;;;;;;4.30;2.55;;;15.80;99.90;;;;;;7370125;32;20120;-55
2023/07/17 02:28:15;;;;;;;3.85;1.80;;;15.70;99.90;;;;;;7366427;32;20520;-55
2023/07/17 02:32:17;;;;;;;3.80;1.90;;;15.70;99.90;;;;;;7374329;32;20457;-55
2023/07/17 02:36:19;;;;;;;4.43;1.77;;;15.70;99.90;;;;;;7368454;32;20469;-55
2023/07/17 02:40:21;;;;;;;3.78;1.62;;;15.70;99.90;;;;;;7369599;32;20151;-55
2023/07/17 02:44:23;;;;;;;4.12;2.00;;;15.60;99.90;;;;;;7360800;32;20125;-55
2023/07/17 02:48:24;;;;;;;3.37;1.90;;;15.50;99.90;;;;;;7372871;32;20642;-55
2023/07/17 02:52:28;;;;;;;3.78;2.05;;;15.40;99.90;;;;;;7374453;32;20132;-55
2023/07/17 02:56:30;;;;;;;5.80;1.98;;;15.40;99.90;;;;;;7360440;32;20186;-55
2023/07/17 03:00:34;;;;;;;6.15;2.10;;;15.40;99.90;;;;;;7373983;32;20433;-55
2023/07/17 03:04:35;;;;;;;4.10;1.85;;;15.40;99.90;;;;;;7380548;32;20106;-55
2023/07/17 03:08:38;;;;;;;3.72;1.83;;;15.30;99.90;;;;;;7355376;32;20107;-55
2023/07/17 03:12:41;;;;;;;5.25;2.28;;;15.30;99.90;;;;;;7361168;32;20620;-55
2023/07/17 03:16:42;;;;;;;2.95;1.80;;;15.30;99.90;;;;;;7370064;32;20102;-55
2023/07/17 03:20:44;;;;;;;3.92;1.95;;;15.30;99.90;;;;;;7353364;32;20242;-55
2023/07/17 03:24:46;;;;;;;4.15;2.20;;;15.20;99.90;;;;;;7367953;32;20141;-55
2023/07/17 03:28:48;;;;;;;4.45;2.30;;;15.20;99.90;;;;;;7358923;32;20541;-55
2023/07/17 03:32:50;;;;;;;4.43;2.17;;;15.10;99.90;;;;;;7371010;32;20209;-55
2023/07/17 03:36:52;;;;;;;4.25;2.20;;;15.10;99.90;;;;;;7378923;32;20481;-55
2023/07/17 03:40:56;;;;;;;3.95;2.05;;;15.00;99.90;;;;;;7372624;32;20726;-55
2023/07/17 03:44:59;;;;;;;5.03;2.17;;;14.90;99.90;;;;;;7367733;32;20544;-55
2023/07/17 03:49:01;;;;;;;6.22;2.72;;;14.90;99.90;;;;;;7385716;32;20525;-55
2023/07/17 03:53:03;;;;;;;5.78;2.58;;;14.80;99.90;;;;;;7378748;32;20115;-56
2023/07/17 03:57:05;;;;;;;5.22;2.65;;;14.70;99.90;;;;;;7370077;32;20125;-55
2023/07/17 04:01:06;;;;;;;4.47;2.78;;;14.70;99.90;;;;;;7367401;32;20260;-55
2023/07/17 04:05:09;;;;;;;4.40;2.37;;;14.70;99.90;;;;;;7378270;32;20537;-55
2023/07/17 04:09:11;;;;;;;4.57;2.42;;;14.70;99.90;;;;;;7381108;32;20148;-55
2023/07/17 04:13:13;;;;;;;5.55;2.50;;;14.70;99.90;;;;;;7368500;32;20099;-55
2023/07/17 04:17:15;;;;;;;4.47;2.40;;;14.70;99.90;;;;;;7374839;32;20137;-55
2023/07/17 04:21:17;;;;;;;5.22;2.25;;;14.80;99.90;;;;;;7372509;32;20098;-55
2023/07/17 04:25:19;;;;;;;8.65;3.35;;;14.80;99.90;;;;;;7369730;32;20257;-55
2023/07/17 04:29:24;;;;;;;7.18;2.55;;;14.90;99.90;;;;;;7362324;32;20261;-55
2023/07/17 04:33:26;;;;;;;6.80;2.40;;;15.00;99.90;;;;;;7365121;32;20100;-55
2023/07/17 04:37:28;;;;;;;4.68;2.60;;;15.10;99.90;;;;;;7369009;32;20487;-55
2023/07/17 04:41:30;;;;;;;6.20;2.60;;;15.30;99.90;;;;;;7374753;32;20133;-55
2023/07/17 04:45:32;;;;;;;6.07;2.60;;;15.50;99.90;;;;;;7366217;32;20108;-55
2023/07/17 04:49:34;;;;;;;5.43;2.50;;;15.70;99.90;;;;;;7368029;32;20521;-56
2023/07/17 04:53:36;;;;;;;5.45;2.60;;;15.90;99.90;;;;;;7376981;32;20125;-56
2023/07/17 04:57:37;;;;;;;8.23;3.00;;;16.10;99.90;;;;;;7376789;32;20129;-56
2023/07/17 05:01:39;;;;;;;5.32;2.03;;;16.30;99.90;;;;;;7372365;32;20176;-56
2023/07/17 05:05:46;;;;;;;8.20;2.58;;;16.40;99.90;;;;;;7357192;32;20249;-56
2023/07/17 05:09:48;;;;;;;10.05;2.67;;;16.70;99.90;;;;;;7370450;32;20259;-56
2023/07/17 05:13:50;;;;;;;5.05;2.20;;;17.00;99.90;;;;;;7365351;32;20517;-56
2023/07/17 05:17:51;;;;;;;5.18;2.03;;;17.40;99.90;;;;;;7376268;32;20280;-56
2023/07/17 05:21:53;;;;;;;5.62;2.40;;;17.70;99.90;;;;;;7376101;32;20107;-56
2023/07/17 05:25:57;;;;;;;4.40;2.28;;;17.80;99.90;;;;;;7380089;32;20137;-55
2023/07/17 05:29:59;;;;;;;6.32;2.45;;;18.00;99.90;;;;;;7375895;32;20162;-56
2023/07/17 05:34:01;;;;;;;7.50;2.62;;;18.40;99.90;;;;;;7377054;32;20623;-56
2023/07/17 05:38:03;;;;;;;7.97;2.40;;;18.70;99.90;;;;;;7368938;32;20118;-56
2023/07/17 05:42:05;;;;;;;9.45;2.78;;;18.60;99.90;;;;;;7376202;32;20137;-55
2023/07/17 05:46:07;;;;;;;5.65;2.65;;;18.70;99.90;;;;;;7367807;32;20421;-56
2023/07/17 05:50:10;;;;;;;6.87;2.62;;;18.80;99.90;;;;;;7375871;32;20381;-56
2023/07/17 05:54:12;;;;;;;6.10;3.30;;;19.10;99.90;;;;;;7369179;32;20203;-56
2023/07/17 05:58:14;;;;;;;6.65;2.90;;;19.10;99.90;;;;;;7367483;32;20671;-56
2023/07/17 06:02:15;;;;;;;5.47;2.72;;;19.20;99.90;;;;;;7361487;32;20125;-56
2023/07/17 06:06:17;;;;;;;6.28;3.05;;;19.50;99.90;;;;;;7368188;32;20242;-56
2023/07/17 06:10:19;;;;;;;8.25;2.95;;;19.60;99.90;;;;;;7371379;32;20153;-56
2023/07/17 06:14:21;;;;;;;6.50;3.00;;;19.60;99.90;;;;;;7379257;32;20157;-56
2023/07/17 06:18:23;;;;;;;7.22;3.00;;;19.90;99.90;;;;;;7367590;32;20362;-56
2023/07/17 06:22:25;;;;;;;6.45;2.92;;;20.40;99.90;;;;;;7363905;32;20099;-57
2023/07/17 06:26:27;;;;;;;7.37;3.60;;;20.80;99.90;;;;;;7374580;32;20174;-57
2023/07/17 06:30:33;;;;;;;6.03;3.33;;;21.10;99.90;;;;;;7376119;32;20122;-56
2023/07/17 06:34:35;;;;;;;12.53;3.63;;;21.40;99.90;;;;;;7368282;32;20137;-56
2023/07/17 06:38:37;;;;;;;9.27;4.07;;;22.10;99.90;;;;;;7375191;32;20547;-56
2023/07/17 06:42:39;;;;;;;11.55;4.80;;;22.00;99.90;;;;;;7368772;32;20574;-56
2023/07/17 06:46:41;;;;;;;9.93;4.53;;;21.60;99.90;;;;;;7370022;32;20103;-56
2023/07/17 06:50:45;;;;;;;7.95;4.35;;;22.40;99.90;;;;;;7375856;32;20133;-56
2023/07/17 06:54:47;;;;;;;8.20;4.15;;;22.70;99.90;;;;;;7379819;32;20131;-56
2023/07/17 06:59:05;;;;;;;9.80;3.75;;;22.00;99.90;;;;;;7374318;32;20117;-58
2023/07/17 07:03:07;;;;;;;8.32;3.92;;;21.90;99.90;;;;;;7376696;32;20099;-56
2023/07/17 07:07:09;;;;;;;9.10;3.60;;;22.90;99.90;;;;;;7373931;32;20121;-57
2023/07/17 07:11:11;;;;;;;7.62;3.53;;;22.30;99.90;;;;;;7378675;32;20111;-57
2023/07/17 07:15:13;;;;;;;8.52;3.65;;;22.60;99.90;;;;;;7376068;32;20564;-57
2023/07/17 07:19:15;;;;;;;6.37;3.50;;;22.60;99.90;;;;;;7374565;32;20191;-57
2023/07/17 07:23:17;;;;;;;8.48;3.50;;;22.70;99.90;;;;;;7373448;32;20551;-57
2023/07/17 07:27:19;;;;;;;9.90;3.17;;;22.30;99.90;;;;;;7378888;32;20595;-57
2023/07/17 07:31:20;;;;;;;11.00;4.05;;;21.70;99.90;;;;;;7368047;32;20328;-57
2023/07/17 07:35:22;;;;;;;8.25;3.78;;;21.40;99.90;;;;;;7374354;32;20210;-57
2023/07/17 07:39:24;;;;;;;8.95;3.80;;;21.50;99.90;;;;;;7375462;32;20100;-57
2023/07/17 07:43:26;;;;;;;10.00;4.20;;;21.30;99.90;;;;;;7369272;32;20122;-58
2023/07/17 07:47:30;;;;;;;11.75;4.32;;;20.80;99.90;;;;;;7367673;32;20202;-57
2023/07/17 07:51:32;;;;;;;8.43;4.18;;;20.30;99.90;;;;;;7375898;32;20150;-57
2023/07/17 07:55:33;;;;;;;7.97;3.95;;;20.10;99.90;;;;;;7374212;32;20110;-57
2023/07/17 07:59:35;;;;;;;9.05;4.15;;;19.80;99.90;;;;;;7376920;32;20099;-57
2023/07/17 08:03:40;;;;;;;7.78;4.18;;;19.70;99.90;;;;;;7369641;32;20202;-57
2023/07/17 08:07:42;;;;;;;8.95;3.78;;;19.80;99.90;;;;;;7375313;32;20849;-57
2023/07/17 08:11:44;;;;;;;9.95;4.05;;;19.80;99.90;;;;;;7366670;32;20375;-57
2023/07/17 08:15:47;;;;;;;9.40;4.25;;;19.90;99.90;;;;;;7380355;32;20107;-58
2023/07/17 08:19:49;;;;;;;8.48;3.42;;;19.90;99.90;;;;;;7383808;32;20129;-58
2023/07/17 08:23:51;;;;;;;6.70;3.37;;;20.40;99.90;;;;;;7377679;32;20134;-58
2023/07/17 08:27:54;;;;;;;7.95;4.00;;;20.40;99.90;;;;;;7375544;32;20144;-57
2023/07/17 08:31:56;;;;;;;7.03;3.92;;;20.40;99.90;;;;;;7383201;32;20493;-58
2023/07/17 08:35:59;;;;;;;7.97;4.00;;;20.50;99.90;;;;;;7377683;32;20170;-58
2023/07/17 08:40:02;;;;;;;8.57;3.78;;;20.90;99.90;;;;;;7379686;32;20162;-56
2023/07/17 08:44:04;;;;;;;7.30;4.25;;;21.80;99.90;;;;;;7372379;32;20565;-55
2023/07/17 08:48:06;;;;;;;7.43;4.20;;;21.60;99.90;;;;;;7375362;32;20103;-56
2023/07/17 08:52:10;;;;;;;9.75;4.75;;;21.50;99.90;;;;;;7379558;32;20842;-56
2023/07/17 08:56:12;;;;;;;9.57;4.10;;;21.70;99.90;;;;;;7382203;32;20278;-55
2023/07/17 09:00:16;;;;;;;7.10;3.67;;;22.10;99.90;;;;;;7370609;32;20176;-55
2023/07/17 09:04:18;;;;;;;7.82;3.40;;;22.50;99.90;;;;;;7379401;32;20594;-56
2023/07/17 09:08:19;;;;;;;6.28;3.45;;;22.60;99.90;;;;;;7377669;32;20142;-56
2023/07/17 09:12:22;;;;;;;7.65;3.90;;;22.90;99.90;;;;;;7379096;32;20130;-57
2023/07/17 09:16:24;;;;;;;9.40;3.78;;;23.60;99.90;;;;;;7375628;32;20111;-55
2023/07/17 09:20:26;;;;;;;9.35;3.58;;;24.20;99.90;;;;;;7378521;32;20125;-56
2023/07/17 09:24:31;;;;;;;7.45;3.58;;;24.60;99.90;;;;;;7376851;32;20174;-55
2023/07/17 09:28:37;;;;;;;5.85;3.20;;;24.90;99.90;;;;;;7379260;32;20679;-56
2023/07/17 09:32:40;;;;;;;6.97;3.35;;;25.20;99.20;;;;;;7381845;32;20444;-55
2023/07/17 09:36:43;;;;;;;5.85;2.85;;;24.50;98.50;;;;;;7381371;32;20461;-57
2023/07/17 09:40:44;;;;;;;5.22;3.40;;;24.30;99.30;;;;;;7378750;32;20553;-55
2023/07/17 09:44:46;;;;;;;6.75;3.47;;;24.40;96.90;;;;;;7381463;32;20142;-55
2023/07/17 09:48:50;;;;;;;6.12;3.17;;;24.30;97.50;;;;;;7375221;32;20129;-56
2023/07/17 09:52:53;;;;;;;6.07;3.05;;;24.40;98.90;;;;;;7381010;32;20251;-55
2023/07/17 09:56:56;;;;;;;6.55;3.15;;;24.50;98.40;;;;;;7379973;32;20106;-56
2023/07/17 10:01:00;;;;;;;9.32;3.17;;;24.30;99.50;;;;;;7380926;32;20199;-56
2023/07/17 10:05:05;;;;;;;6.32;3.00;;;24.50;99.90;;;;;;7377356;32;20192;-57
2023/07/17 10:09:11;;;;;;;6.18;3.10;;;23.20;97.70;;;;;;7376354;32;20102;-56
2023/07/17 10:13:14;;;;;;;7.43;2.90;;;22.40;99.10;;;;;;7380687;32;20449;-56
2023/07/17 10:17:30;;;;;;;8.23;3.25;;;22.60;99.30;;;;;;7380569;32;20176;-56
2023/07/17 10:21:32;;;;;;;6.87;3.58;;;22.10;99.90;;;;;;7364524;32;20103;-56
2023/07/17 10:25:34;;;;;;;10.88;3.00;;;22.00;99.90;;;;;;7371587;32;20705;-57
2023/07/17 10:29:41;;;;;;;7.47;3.25;;;21.90;99.90;;;;;;7376287;32;20107;-56
2023/07/17 10:33:45;;;;;;;;;;;22.10;99.90;;;;;;7376079;32;20193;-57
2023/07/17 10:37:47;;;;;;;8.40;3.72;;;23.10;99.90;;;;;;7373392;32;20017;-57
2023/07/17 10:41:52;;;;;;;8.32;4.03;;;24.00;99.90;;;;;;7379794;32;20208;-57
2023/07/17 10:45:53;;;;;;;6.47;3.50;;;24.60;98.40;;;;;;7380167;32;20512;-57
2023/07/17 10:50:02;;;;;;;9.15;4.20;;;24.10;99.60;;;;;;7379096;32;20098;-58
2023/07/17 10:54:04;;;;;;;7.07;3.72;;;23.80;99.10;;;;;;7375601;32;20118;-58
2023/07/17 10:58:06;;;;;;;8.43;3.90;;;23.40;98.90;;;;;;7380863;32;20459;-57
2023/07/17 11:02:08;;;;;;;10.45;4.10;;;22.70;99.90;;;;;;7369894;32;20463;-56
2023/07/17 11:06:09;;;;;;;9.10;4.00;;;22.20;99.90;;;;;;7379101;32;20125;-57
2023/07/17 11:10:12;;;;;;;9.60;4.37;;;22.00;99.90;;;;;;7372126;32;20103;-56
2023/07/17 11:14:14;;;;;;;7.95;4.12;;;22.00;99.90;;;;;;7366092;32;20753;-58
2023/07/17 11:18:16;;;;;;;6.10;4.00;;;21.80;99.90;;;;;;7378231;32;20103;-58
2023/07/17 11:22:18;;;;;;;7.62;4.15;;;21.50;99.90;;;;;;7371431;32;20178;-56
2023/07/17 11:26:25;;;;;;;9.30;4.57;;;21.40;99.90;;;;;;7371002;32;20106;-57
2023/07/17 11:30:29;;;;;;;13.15;4.72;;;21.50;99.90;;;;;;7377898;32;20473;-58
2023/07/17 11:34:31;;;;;;;10.63;5.20;;;21.60;99.90;;;;;;7376796;32;20112;-58
2023/07/17 11:38:32;;;;;;;8.95;4.20;;;21.60;99.90;;;;;;7377307;32;20281;-56
2023/07/17 11:42:53;;;;;;;9.70;4.87;;;21.60;99.90;;;;;;7378038;32;20108;-57
2023/07/17 11:47:13;;;;;;;8.50;4.82;;;21.70;99.90;;;;;;7374130;32;20122;-57
2023/07/17 11:51:14;;;;;;;9.15;4.80;;;22.40;99.90;;;;;;7380213;32;20125;-57
2023/07/17 11:55:21;;;;;;;9.43;5.10;;;22.40;99.90;;;;;;7376829;32;20107;-56
2023/07/17 11:59:24;;;;;;;10.63;5.18;;;22.50;99.90;;;;;;7383555;32;20576;-56
2023/07/17 12:03:26;;;;;;;8.93;4.85;;;22.50;99.90;;;;;;7377767;32;20777;-57
2023/07/17 12:07:28;;;;;;;8.00;4.55;;;22.20;99.90;;;;;;7375896;32;20284;-57
2023/07/17 12:11:30;;;;;;;7.70;4.65;;;22.10;99.90;;;;;;7371616;32;20167;-57
2023/07/17 12:15:32;;;;;;;9.60;4.57;;;22.10;99.90;;;;;;7381378;32;20980;-56
2023/07/17 12:19:34;;;;;;;7.45;4.60;;;22.30;99.90;;;;;;7382845;32;20846;-57
2023/07/17 12:23:35;;;;;;;7.20;4.87;;;22.50;99.90;;;;;;7377668;32;20156;-57
2023/07/17 12:27:37;;;;;;;9.15;4.18;;;22.70;99.90;;;;;;7382834;32;20561;-57
2023/07/17 12:31:39;;;;;;;11.02;4.60;;;23.20;99.90;;;;;;7380948;32;20157;-57
2023/07/17 12:35:41;;;;;;;10.27;4.90;;;23.20;99.90;;;;;;7373896;32;20169;-58
2023/07/17 12:39:44;;;;;;;7.20;3.80;;;23.50;99.90;;;;;;7384141;32;20098;-57
2023/07/17 12:43:46;;;;;;;7.07;4.32;;;23.80;99.40;;;;;;7382721;32;20662;-58
2023/07/17 12:47:47;;;;;;;8.82;4.35;;;23.80;99.90;;;;;;7384087;32;20103;-58
2023/07/17 12:51:49;;;;;;;10.57;4.53;;;23.30;99.30;;;;;;7377116;32;20126;-58
2023/07/17 12:55:51;;;;;;;8.27;4.22;;;23.30;99.90;;;;;;7377134;32;20485;-56
2023/07/17 13:00:13;;;;;;;8.20;3.95;;;24.10;99.90;;;;;;7380668;32;20254;-55
2023/07/17 13:04:15;;;;;;;7.75;3.35;;;24.20;98.20;;;;;;7381753;32;20186;-56
2023/07/17 13:08:17;;;;;;;5.70;3.87;;;23.80;97.80;;;;;;7380330;32;20107;-57
2023/07/17 13:12:20;;;;;;;6.35;3.60;;;23.90;97.30;;;;;;7383501;32;20186;-58
2023/07/17 13:16:35;;;;;;;6.12;3.65;;;23.80;96.90;;;;;;7378437;32;20123;-59
2023/07/17 13:20:37;;;;;;;5.18;3.53;;;24.40;97.80;;;;;;7371461;32;20091;-59
2023/07/17 13:24:38;;;;;;;6.97;4.03;;;24.40;95.90;;;;;;7379433;32;20479;-59
2023/07/17 13:28:40;;;;;;;7.50;3.50;;;24.90;94.70;;;;;;7382249;32;20102;-58
2023/07/17 13:32:42;;;;;;;6.60;3.10;;;24.30;94.70;;;;;;7377340;32;20171;-57
2023/07/17 13:36:45;;;;;;;7.65;3.50;;;24.00;95.70;;;;;;7378555;32;20511;-58
2023/07/17 13:40:47;;;;;;;8.75;3.15;;;24.10;94.60;;;;;;7370252;32;20468;-58
2023/07/17 13:44:49;;;;;;;4.90;3.22;;;23.90;95.80;;;;;;7383003;32;20464;-57
2023/07/17 13:48:51;;;;;;;5.82;3.03;;;24.10;95.70;;;;;;7381750;32;20130;-59
2023/07/17 13:52:52;;;;;;;5.25;3.03;;;24.00;93.00;;;;;;7378720;32;20107;-57
2023/07/17 13:56:54;;;;;;;5.00;3.35;;;23.80;94.70;;;;;;7376391;32;20631;-56
2023/07/17 14:00:59;;;;;;;5.95;3.08;;;23.70;95.30;;;;;;7380116;32;20595;-57
2023/07/17 14:05:01;;;;;;;7.40;3.37;;;23.50;96.30;;;;;;7376196;32;20098;-58
2023/07/17 14:09:02;;;;;;;6.85;3.08;;;23.40;97.80;;;;;;7366957;32;20160;-57
2023/07/17 14:13:04;;;;;;;6.00;3.15;;;23.30;94.70;;;;;;7378441;32;20157;-58
2023/07/17 14:17:06;;;;;;;7.47;3.12;;;23.20;95.90;;;;;;7373265;32;20107;-57
2023/07/17 14:21:08;;;;;;;7.85;2.85;;;23.10;96.20;;;;;;7367645;32;20728;-58
2023/07/17 14:25:10;;;;;;;5.70;2.62;;;23.00;95.30;;;;;;7372382;32;20198;-57
2023/07/17 14:29:12;;;;;;;7.72;2.40;;;23.00;96.00;;;;;;7379540;32;20559;-56
2023/07/17 14:33:14;;;;;;;5.62;2.40;;;23.00;94.60;;;;;;7379868;32;20197;-57
2023/07/17 14:37:16;;;;;;;7.20;2.90;;;22.70;93.30;;;;;;7368431;32;20209;-57
2023/07/17 14:41:17;;;;;;;3.87;1.87;;;22.90;95.10;;;;;;7377497;32;20122;-57
2023/07/17 14:45:19;;;;;;;2.90;1.98;;;23.40;93.40;;;;;;7373506;32;20103;-56
2023/07/17 14:49:21;;;;;;;6.60;2.72;;;23.20;94.00;;;;;;7379446;32;20127;-56
2023/07/17 14:53:23;;;;;;;4.90;2.33;;;22.90;95.40;;;;;;7367953;32;20133;-57
2023/07/17 14:57:25;;;;;;;6.03;3.10;;;22.60;94.40;;;;;;7377896;32;20582;-57
2023/07/17 15:01:26;;;;;;;5.93;2.50;;;22.00;99.90;;;;;;7379625;32;20111;-57
2023/07/17 15:05:28;;;;;;;7.87;2.58;;;21.10;99.90;;;;;;7380862;32;20248;-57
2023/07/17 15:09:30;;;;;;;6.43;3.30;;;20.40;99.90;;;;;;7375373;32;20138;-57
2023/07/17 15:13:36;;;;;;;7.93;4.57;;;20.00;99.90;;;;;;7359882;32;20137;-56
2023/07/17 15:17:38;;;;;;;10.05;4.43;;;19.50;99.90;;;;;;7376151;32;20574;-57
2023/07/17 15:21:40;;;;;;;10.18;3.72;;;18.80;99.90;;;;;;7366110;32;20091;-57
2023/07/17 15:25:41;;;;;;;4.50;3.00;;;18.40;99.90;;;;;;7372835;32;20122;-57
2023/07/17 15:29:43;;;;;;;5.85;3.20;;;18.10;99.90;;;;;;7379099;32;20106;-57
2023/07/17 15:33:45;;;;;;;8.85;3.92;;;18.00;99.90;;;;;;7378865;32;20099;-58
2023/07/17 15:37:47;;;;;;;7.15;3.40;;;17.70;99.90;;;;;;7380257;32;20125;-57
2023/07/17 15:41:48;;;;;;;6.62;3.85;;;17.60;99.90;;;;;;7371264;32;20125;-56
2023/07/17 15:45:50;;;;;;;7.45;3.20;;;17.40;99.90;;;;;;7380357;32;20125;-58
2023/07/17 15:49:52;;;;;;;9.50;4.15;;;17.40;99.90;;;;;;7378640;32;20269;-57
2023/07/17 15:53:54;;;;;;;8.02;3.47;;;17.30;99.90;;;;;;7371481;32;20206;-57
2023/07/17 15:57:55;;;;;;;6.78;3.30;;;17.40;99.90;;;;;;7371644;32;20251;-56
2023/07/17 16:01:58;;;;;;;8.25;3.37;;;17.50;99.90;;;;;;7378472;32;20107;-57
2023/07/17 16:06:00;;;;;;;6.65;3.47;;;17.40;99.90;;;;;;7377223;32;20107;-56
2023/07/17 16:10:01;;;;;;;7.85;3.45;;;17.50;99.90;;;;;;7371985;32;20609;-56
2023/07/17 16:14:03;;;;;;;8.05;3.12;;;17.50;99.90;;;;;;7376069;32;20506;-56
2023/07/17 16:18:05;;;;;;;9.20;3.35;;;17.50;99.90;;;;;;7377561;32;20103;-57
2023/07/17 16:22:07;;;;;;;5.90;3.00;;;17.50;99.90;;;;;;7369166;32;20167;-56
2023/07/17 16:26:10;;;;;;;5.40;2.75;;;17.50;99.90;;;;;;7376146;32;20230;-55
2023/07/17 16:30:12;;;;;;;6.20;2.40;;;17.30;99.90;;;;;;7377465;32;20130;-56
2023/07/17 16:34:13;;;;;;;5.68;2.50;;;16.70;99.90;;;;;;7374782;32;20247;-56
2023/07/17 16:38:15;;;;;;;4.85;2.35;;;16.30;99.90;;;;;;7383858;32;20246;-56
2023/07/17 16:42:17;;;;;;;4.28;2.03;;;16.20;99.90;;;;;;7372170;32;20491;-56
2023/07/17 16:46:19;;;;;;;5.50;2.45;;;16.10;99.90;;;;;;7378079;32;20144;-56
2023/07/17 16:50:21;;;;;;;5.22;2.17;;;16.10;99.90;;;;;;7375749;32;20183;-56
2023/07/17 16:54:23;;;;;;;5.35;2.62;;;16.20;99.90;;;;;;7378660;32;20252;-56
2023/07/17 16:58:25;;;;;;;8.23;2.80;;;16.40;99.90;;;;;;7374409;32;20194;-56
2023/07/17 17:02:27;;;;;;;7.18;2.72;;;16.50;99.90;;;;;;7375355;32;20569;-56
2023/07/17 17:06:29;;;;;;;5.32;3.10;;;16.50;99.90;;;;;;7379380;32;20114;-56
2023/07/17 17:10:30;;;;;;;6.07;2.92;;;16.40;99.90;;;;;;7378044;32;20271;-57
2023/07/17 17:14:32;;;;;;;5.32;2.75;;;16.30;99.90;;;;;;7379481;32;20166;-56
2023/07/17 17:18:34;;;;;;;7.40;2.72;;;16.30;99.90;;;;;;7377498;32;20115;-57
2023/07/17 17:22:36;;;;;;;5.47;2.45;;;16.40;99.90;;;;;;7370045;32;20111;-57
2023/07/17 17:26:38;;;;;;;6.35;2.80;;;16.60;99.90;;;;;;7378364;32;20258;-58
2023/07/17 17:30:40;;;;;;;5.70;2.70;;;16.70;99.90;;;;;;7378719;32;20156;-57
2023/07/17 17:34:42;;;;;;;4.43;2.62;;;17.00;99.90;;;;;;7382405;32;20103;-57
2023/07/17 17:38:44;;;;;;;5.37;2.60;;;16.90;99.90;;;;;;7377129;32;20130;-56
2023/07/17 17:42:46;;;;;;;6.87;2.53;;;17.00;99.90;;;;;;7376286;32;20494;-56
2023/07/17 17:46:47;;;;;;;5.78;3.03;;;17.00;99.90;;;;;;7381969;32;20647;-57
2023/07/17 17:50:49;;;;;;;6.53;2.45;;;16.90;99.90;;;;;;7380726;32;20107;-57
2023/07/17 17:54:51;;;;;;;7.78;2.60;;;16.90;99.90;;;;;;7371846;32;20134;-57
2023/07/17 17:58:53;;;;;;;5.30;2.95;;;16.90;99.90;;;;;;7377414;32;20111;-57
2023/07/17 18:02:55;;;;;;;5.03;2.40;;;17.00;99.90;;;;;;7381486;32;20582;-57
2023/07/17 18:06:57;;;;;;;3.37;1.90;;;16.90;99.90;;;;;;7374658;32;20129;-57
2023/07/17 18:10:58;;;;;;;3.65;1.95;;;16.90;99.90;;;;;;7374829;32;20099;-56
2023/07/17 18:15:00;;;;;;;3.37;1.70;;;16.80;99.90;;;;;;7375988;32;20170;-56
2023/07/17 18:19:02;;;;;;;2.85;1.33;;;16.70;99.90;;;;;;7374170;32;20159;-56
2023/07/17 18:23:04;;;;;;;4.55;1.60;;;16.60;99.90;;;;;;7379397;32;20533;-56
2023/07/17 18:27:07;;;;;;;3.08;2.17;;;16.60;99.90;;;;;;7370135;32;20194;-56
2023/07/17 18:31:09;;;;;;;3.12;2.05;;;16.50;99.90;;;;;;7366823;32;20426;-56
2023/07/17 18:35:11;;;;;;;4.07;1.90;;;16.50;99.90;;;;;;7369566;32;20486;-56
2023/07/17 18:39:13;;;;;;;3.53;2.33;;;16.40;99.90;;;;;;7371077;32;20474;-57
2023/07/17 18:43:16;;;;;;;4.07;2.10;;;16.30;99.90;;;;;;7379428;32;20486;-57
2023/07/17 18:47:18;;;;;;;4.43;2.17;;;16.30;99.90;;;;;;7361489;32;20125;-56
2023/07/17 18:51:19;;;;;;;5.75;2.47;;;16.20;99.90;;;;;;7372744;32;20520;-57
2023/07/17 18:55:21;;;;;;;4.07;2.00;;;16.10;99.90;;;;;;7375210;32;20210;-57
2023/07/17 18:59:23;;;;;;;4.12;1.87;;;16.00;99.90;;;;;;7369214;32;20151;-56
2023/07/17 19:03:25;;;;;;;4.55;2.30;;;15.90;99.90;;;;;;7377736;32;20124;-57
2023/07/17 19:07:27;;;;;;;4.62;2.33;;;15.90;99.90;;;;;;7367545;32;20103;-56
2023/07/17 19:11:29;;;;;;;4.72;2.50;;;15.80;99.90;;;;;;7370695;32;20103;-56
2023/07/17 19:15:31;;;;;;;3.75;2.37;;;15.80;99.90;;;;;;7375591;32;20099;-57
2023/07/17 19:19:32;;;;;;;3.80;2.28;;;15.80;99.90;;;;;;7376441;32;20110;-57
2023/07/17 19:23:34;;;;;;;3.67;2.00;;;15.60;99.90;;;;;;7371157;32;20110;-56
2023/07/17 19:27:36;;;;;;;5.25;2.47;;;15.60;99.90;;;;;;7376957;32;20154;-56
2023/07/17 19:31:38;;;;;;;5.10;2.30;;;15.50;99.90;;;;;;7361191;32;20786;-56
2023/07/17 19:35:40;;;;;;;7.60;2.83;;;15.40;99.90;;;;;;7370447;32;20153;-57
2023/07/17 19:39:42;;;;;;;8.57;2.37;;;15.40;99.90;;;;;;7376071;32;20392;-57
2023/07/17 19:43:44;;;;;;;7.05;2.35;;;15.30;99.90;;;;;;7370183;32;20119;-57
2023/07/17 19:47:46;;;;;;;4.20;2.20;;;15.20;99.90;;;;;;7370517;32;20099;-56
2023/07/17 19:51:47;;;;;;;4.62;2.37;;;15.10;99.90;;;;;;7379261;32;20199;-56
2023/07/17 19:55:49;;;;;;;4.25;2.42;;;15.00;99.90;;;;;;7376305;32;20122;-55
2023/07/17 19:59:51;;;;;;;6.95;2.37;;;14.90;99.90;;;;;;7375649;32;20143;-55
2023/07/17 20:03:53;;;;;;;3.17;2.20;;;14.90;99.90;;;;;;7374519;32;20592;-55
2023/07/17 20:07:56;;;;;;;6.25;2.33;;;14.80;99.90;;;;;;7376687;32;20119;-55
2023/07/17 20:11:58;;;;;;;2.85;1.70;;;14.60;99.90;;;;;;7376067;32;20155;-56
2023/07/17 20:16:00;;;;;;;3.62;2.25;;;14.60;99.90;;;;;;7384474;32;20111;-57
2023/07/17 20:20:03;;;;;;;5.55;2.33;;;14.40;99.90;;;;;;7381529;32;20111;-55
2023/07/17 20:24:05;;;;;;;4.15;2.20;;;14.30;99.90;;;;;;7372102;32;20512;-56
2023/07/17 20:28:08;;;;;;;3.55;2.25;;;14.30;99.90;;;;;;7380222;32;20520;-56
2023/07/17 20:32:10;;;;;;;4.87;2.40;;;14.20;99.90;;;;;;7382332;32;20100;-55
2023/07/17 20:36:12;;;;;;;8.35;2.20;;;14.10;99.90;;;;;;7378504;32;20131;-56
2023/07/17 20:40:14;;;;;;;4.62;2.40;;;14.00;99.90;;;;;;7372127;32;20159;-56
2023/07/17 20:44:16;;;;;;;3.70;2.20;;;14.00;99.90;;;;;;7378028;32;20186;-56
2023/07/17 20:48:21;;;;;;;4.28;2.25;;;13.90;99.90;;;;;;7362416;32;20173;-55
2023/07/17 20:52:22;;;;;;;3.42;2.22;;;13.80;99.90;;;;;;7378700;32;20141;-55
2023/07/17 20:56:24;;;;;;;4.20;2.10;;;13.70;99.90;;;;;;7372941;32;20111;-55
2023/07/17 21:00:26;;;;;;;4.43;2.37;;;13.70;99.90;;;;;;7369099;32;20193;-56